sensor_id;sensor_type;location;lat;lon;timestamp;pressure;altitude;pressure_sealevel;temperature;humidity
34237;BME280;20501;45.956;13.632;2022-09-01T00:01:34;100366.66;;;21.44;63.19
34237;BME280;20501;45.956;13.632;2022-09-01T00:04:04;100372.56;;;21.48;63.26
34237;BME280;20501;45.956;13.632;2022-09-01T00:06:31;100359.25;;;21.45;62.61
34237;BME280;20501;45.956;13.632;2022-09-01T00:09:00;100365.59;;;21.45;62.59
34237;BME280;20501;45.956;13.632;2022-09-01T00:11:27;100356.34;;;21.33;63.18
34237;BME280;20501;45.956;13.632;2022-09-01T00:13:55;100365.16;;;21.48;62.99
34237;BME280;20501;45.956;13.632;2022-09-01T00:16:21;100360.91;;;21.59;63.73
34237;BME280;20501;45.956;13.632;2022-09-01T00:18:50;100357.97;;;21.54;63.10
34237;BME280;20501;45.956;13.632;2022-09-01T00:21:20;100351.84;;;21.45;63.22
34237;BME280;20501;45.956;13.632;2022-09-01T00:23:46;100352.97;;;21.24;63.58
34237;BME280;20501;45.956;13.632;2022-09-01T00:26:12;100354.69;;;21.12;63.70
34237;BME280;20501;45.956;13.632;2022-09-01T00:28:38;100347.13;;;21.00;66.21
34237;BME280;20501;45.956;13.632;2022-09-01T00:31:04;100351.78;;;21.07;64.22
34237;BME280;20501;45.956;13.632;2022-09-01T00:33:31;100353.47;;;20.94;64.50
34237;BME280;20501;45.956;13.632;2022-09-01T00:35:56;100351.13;;;21.11;64.66
34237;BME280;20501;45.956;13.632;2022-09-01T00:38:22;100348.41;;;20.91;67.56
34237;BME280;20501;45.956;13.632;2022-09-01T00:40:48;100356.88;;;20.90;66.87
34237;BME280;20501;45.956;13.632;2022-09-01T00:43:17;100344.75;;;21.17;67.55
34237;BME280;20501;45.956;13.632;2022-09-01T00:45:44;100346.34;;;20.60;68.28
34237;BME280;20501;45.956;13.632;2022-09-01T00:48:10;100354.16;;;20.76;68.25
34237;BME280;20501;45.956;13.632;2022-09-01T00:50:36;100355.84;;;20.50;68.68
34237;BME280;20501;45.956;13.632;2022-09-01T00:53:03;100360.25;;;20.65;68.75
34237;BME280;20501;45.956;13.632;2022-09-01T00:55:32;100359.41;;;20.44;71.09
34237;BME280;20501;45.956;13.632;2022-09-01T00:58:00;100364.69;;;20.25;70.09
34237;BME280;20501;45.956;13.632;2022-09-01T01:00:30;100370.16;;;20.25;70.09
34237;BME280;20501;45.956;13.632;2022-09-01T01:02:57;100367.81;;;20.16;70.62
34237;BME280;20501;45.956;13.632;2022-09-01T01:05:25;100358.19;;;19.71;73.06
34237;BME280;20501;45.956;13.632;2022-09-01T01:07:54;100362.50;;;19.94;72.04
34237;BME280;20501;45.956;13.632;2022-09-01T01:10:20;100365.97;;;20.30;70.82
34237;BME280;20501;45.956;13.632;2022-09-01T01:12:48;100363.28;;;19.81;71.34
34237;BME280;20501;45.956;13.632;2022-09-01T01:15:16;100366.53;;;19.98;72.02
34237;BME280;20501;45.956;13.632;2022-09-01T01:17:42;100371.00;;;20.39;70.67
34237;BME280;20501;45.956;13.632;2022-09-01T01:20:08;100364.75;;;19.70;72.42
34237;BME280;20501;45.956;13.632;2022-09-01T01:23:09;100362.97;;;19.98;72.22
34237;BME280;20501;45.956;13.632;2022-09-01T01:25:54;100368.47;;;20.24;70.78
34237;BME280;20501;45.956;13.632;2022-09-01T01:28:33;100365.25;;;19.94;70.99
34237;BME280;20501;45.956;13.632;2022-09-01T01:31:02;100371.41;;;20.03;70.47
34237;BME280;20501;45.956;13.632;2022-09-01T01:33:36;100372.03;;;20.05;72.30
34237;BME280;20501;45.956;13.632;2022-09-01T01:36:08;100367.00;;;20.55;71.57
34237;BME280;20501;45.956;13.632;2022-09-01T01:38:38;100365.13;;;20.42;69.74
34237;BME280;20501;45.956;13.632;2022-09-01T01:41:05;100368.47;;;20.58;70.13
34237;BME280;20501;45.956;13.632;2022-09-01T01:43:31;100372.09;;;20.72;71.48
34237;BME280;20501;45.956;13.632;2022-09-01T01:45:57;100366.44;;;19.78;73.41
34237;BME280;20501;45.956;13.632;2022-09-01T01:48:28;100365.09;;;20.22;72.63
34237;BME280;20501;45.956;13.632;2022-09-01T01:50:54;100376.84;;;19.96;72.42
34237;BME280;20501;45.956;13.632;2022-09-01T01:53:22;100378.63;;;20.57;72.23
34237;BME280;20501;45.956;13.632;2022-09-01T01:55:48;100376.50;;;20.39;69.56
34237;BME280;20501;45.956;13.632;2022-09-01T01:58:15;100371.66;;;20.75;71.29
34237;BME280;20501;45.956;13.632;2022-09-01T02:00:41;100372.72;;;20.47;69.59
34237;BME280;20501;45.956;13.632;2022-09-01T02:03:09;100374.81;;;20.18;69.38
34237;BME280;20501;45.956;13.632;2022-09-01T02:05:37;100374.19;;;20.43;69.09
34237;BME280;20501;45.956;13.632;2022-09-01T02:08:06;100373.28;;;19.95;70.15
34237;BME280;20501;45.956;13.632;2022-09-01T02:10:38;100364.13;;;19.75;70.65
34237;BME280;20501;45.956;13.632;2022-09-01T02:13:06;100373.28;;;19.95;70.00
34237;BME280;20501;45.956;13.632;2022-09-01T02:15:36;100360.84;;;20.06;70.02
34237;BME280;20501;45.956;13.632;2022-09-01T02:18:20;100367.63;;;20.17;68.88
34237;BME280;20501;45.956;13.632;2022-09-01T02:20:47;100358.53;;;20.17;70.52
34237;BME280;20501;45.956;13.632;2022-09-01T02:23:14;100363.59;;;20.13;68.72
34237;BME280;20501;45.956;13.632;2022-09-01T02:25:48;100369.53;;;20.23;68.69
34237;BME280;20501;45.956;13.632;2022-09-01T02:28:16;100358.22;;;19.78;70.61
34237;BME280;20501;45.956;13.632;2022-09-01T02:30:44;100358.75;;;19.46;72.75
34237;BME280;20501;45.956;13.632;2022-09-01T02:33:11;100363.84;;;20.45;70.37
34237;BME280;20501;45.956;13.632;2022-09-01T02:35:43;100366.59;;;20.52;72.02
34237;BME280;20501;45.956;13.632;2022-09-01T02:38:10;100362.25;;;19.82;70.98
34237;BME280;20501;45.956;13.632;2022-09-01T02:40:38;100368.47;;;20.58;71.73
34237;BME280;20501;45.956;13.632;2022-09-01T02:43:04;100375.25;;;20.69;70.59
34237;BME280;20501;45.956;13.632;2022-09-01T02:45:30;100357.69;;;20.97;68.33
34237;BME280;20501;45.956;13.632;2022-09-01T02:47:56;100362.34;;;20.69;71.26
34237;BME280;20501;45.956;13.632;2022-09-01T02:50:23;100356.00;;;20.08;72.77
34237;BME280;20501;45.956;13.632;2022-09-01T02:52:49;100360.03;;;20.06;69.38
34237;BME280;20501;45.956;13.632;2022-09-01T02:55:17;100359.41;;;20.71;69.65
34237;BME280;20501;45.956;13.632;2022-09-01T02:57:50;100358.22;;;19.78;70.17
34237;BME280;20501;45.956;13.632;2022-09-01T03:00:17;100358.78;;;20.49;71.84
34237;BME280;20501;45.956;13.632;2022-09-01T03:02:54;100345.88;;;20.02;70.81
34237;BME280;20501;45.956;13.632;2022-09-01T03:05:22;100355.63;;;20.18;73.17
34237;BME280;20501;45.956;13.632;2022-09-01T03:07:57;100348.19;;;20.05;72.68
34237;BME280;20501;45.956;13.632;2022-09-01T03:10:26;100351.63;;;20.75;70.81
34237;BME280;20501;45.956;13.632;2022-09-01T03:12:56;100346.31;;;20.13;68.94
34237;BME280;20501;45.956;13.632;2022-09-01T03:15:21;100352.19;;;20.03;69.12
34237;BME280;20501;45.956;13.632;2022-09-01T03:17:47;100346.94;;;20.08;69.33
34237;BME280;20501;45.956;13.632;2022-09-01T03:20:13;100342.19;;;19.82;70.31
34237;BME280;20501;45.956;13.632;2022-09-01T03:22:39;100340.69;;;19.65;70.35
34237;BME280;20501;45.956;13.632;2022-09-01T03:25:04;100340.84;;;20.13;71.32
34237;BME280;20501;45.956;13.632;2022-09-01T03:27:30;100331.97;;;20.37;71.43
34237;BME280;20501;45.956;13.632;2022-09-01T03:29:55;100332.19;;;20.42;70.33
34237;BME280;20501;45.956;13.632;2022-09-01T03:32:21;100333.25;;;20.48;68.59
34237;BME280;20501;45.956;13.632;2022-09-01T03:34:46;100322.88;;;20.10;67.05
34237;BME280;20501;45.956;13.632;2022-09-01T03:37:12;100314.06;;;20.08;68.75
34237;BME280;20501;45.956;13.632;2022-09-01T03:39:38;100316.56;;;20.77;68.44
34237;BME280;20501;45.956;13.632;2022-09-01T03:42:04;100316.03;;;19.65;68.95
34237;BME280;20501;45.956;13.632;2022-09-01T03:44:29;100316.56;;;20.56;70.65
34237;BME280;20501;45.956;13.632;2022-09-01T03:46:58;100312.13;;;20.62;66.21
34237;BME280;20501;45.956;13.632;2022-09-01T03:49:25;100316.16;;;20.46;70.91
34237;BME280;20501;45.956;13.632;2022-09-01T03:51:52;100303.06;;;20.21;67.47
34237;BME280;20501;45.956;13.632;2022-09-01T03:54:18;100304.97;;;20.28;68.16
34237;BME280;20501;45.956;13.632;2022-09-01T03:56:45;100314.75;;;19.61;70.62
34237;BME280;20501;45.956;13.632;2022-09-01T03:59:10;100327.50;;;19.96;69.15
34237;BME280;20501;45.956;13.632;2022-09-01T04:01:41;100324.78;;;20.63;70.52
34237;BME280;20501;45.956;13.632;2022-09-01T04:04:09;100320.72;;;21.06;69.49
34237;BME280;20501;45.956;13.632;2022-09-01T04:06:38;100327.53;;;20.36;68.41
34237;BME280;20501;45.956;13.632;2022-09-01T04:09:04;100331.78;;;20.25;67.90
34237;BME280;20501;45.956;13.632;2022-09-01T04:11:30;100331.84;;;19.63;69.81
34237;BME280;20501;45.956;13.632;2022-09-01T04:13:58;100329.63;;;20.01;72.26
34237;BME280;20501;45.956;13.632;2022-09-01T04:16:29;100327.94;;;20.06;68.47
34237;BME280;20501;45.956;13.632;2022-09-01T04:19:15;100327.34;;;20.38;65.22
34237;BME280;20501;45.956;13.632;2022-09-01T04:21:48;100327.09;;;20.80;69.84
34237;BME280;20501;45.956;13.632;2022-09-01T04:24:18;100325.22;;;20.47;66.04
34237;BME280;20501;45.956;13.632;2022-09-01T04:26:45;100323.94;;;19.95;68.87
34237;BME280;20501;45.956;13.632;2022-09-01T04:29:14;100328.56;;;20.02;71.13
34237;BME280;20501;45.956;13.632;2022-09-01T04:31:42;100321.22;;;20.76;70.25
34237;BME280;20501;45.956;13.632;2022-09-01T04:34:08;100328.97;;;19.99;67.18
34237;BME280;20501;45.956;13.632;2022-09-01T04:36:52;100323.38;;;19.58;66.77
34237;BME280;20501;45.956;13.632;2022-09-01T04:39:22;100321.34;;;19.74;66.56
34237;BME280;20501;45.956;13.632;2022-09-01T04:41:47;100319.66;;;19.73;66.99
34237;BME280;20501;45.956;13.632;2022-09-01T04:44:14;100321.09;;;19.69;67.52
34237;BME280;20501;45.956;13.632;2022-09-01T04:46:44;100315.91;;;19.87;67.24
34237;BME280;20501;45.956;13.632;2022-09-01T04:49:16;100320.59;;;20.07;67.17
34237;BME280;20501;45.956;13.632;2022-09-01T04:51:48;100316.38;;;20.38;68.59
34237;BME280;20501;45.956;13.632;2022-09-01T04:54:14;100316.97;;;20.67;68.43
34237;BME280;20501;45.956;13.632;2022-09-01T04:56:46;100314.00;;;19.88;66.47
34237;BME280;20501;45.956;13.632;2022-09-01T04:59:16;100306.16;;;19.78;66.19
34237;BME280;20501;45.956;13.632;2022-09-01T05:01:44;100311.44;;;19.73;68.08
34237;BME280;20501;45.956;13.632;2022-09-01T05:04:13;100306.44;;;19.90;66.72
34237;BME280;20501;45.956;13.632;2022-09-01T05:06:44;100308.78;;;20.13;69.06
34237;BME280;20501;45.956;13.632;2022-09-01T05:09:10;100319.72;;;20.06;68.73
34237;BME280;20501;45.956;13.632;2022-09-01T05:11:38;100315.66;;;19.82;66.12
34237;BME280;20501;45.956;13.632;2022-09-01T05:14:04;100324.09;;;19.80;66.01
34237;BME280;20501;45.956;13.632;2022-09-01T05:16:32;100316.66;;;19.54;66.73
34237;BME280;20501;45.956;13.632;2022-09-01T05:18:58;100319.84;;;19.64;66.97
34237;BME280;20501;45.956;13.632;2022-09-01T05:21:25;100324.75;;;19.89;68.43
34237;BME280;20501;45.956;13.632;2022-09-01T05:23:52;100331.16;;;20.37;66.47
34237;BME280;20501;45.956;13.632;2022-09-01T05:26:29;100321.38;;;19.94;69.56
34237;BME280;20501;45.956;13.632;2022-09-01T05:28:57;100323.56;;;20.39;68.62
34237;BME280;20501;45.956;13.632;2022-09-01T05:31:25;100328.81;;;20.27;65.46
34237;BME280;20501;45.956;13.632;2022-09-01T05:33:52;100324.72;;;19.83;64.30
34237;BME280;20501;45.956;13.632;2022-09-01T05:36:20;100332.81;;;20.11;65.07
34237;BME280;20501;45.956;13.632;2022-09-01T05:38:47;100326.69;;;20.09;64.45
34237;BME280;20501;45.956;13.632;2022-09-01T05:41:16;100325.56;;;19.83;64.32
34237;BME280;20501;45.956;13.632;2022-09-01T05:43:43;100317.41;;;19.90;64.93
34237;BME280;20501;45.956;13.632;2022-09-01T05:46:15;100321.44;;;20.28;68.49
34237;BME280;20501;45.956;13.632;2022-09-01T05:48:42;100328.34;;;19.90;64.54
34237;BME280;20501;45.956;13.632;2022-09-01T05:51:10;100333.66;;;20.32;67.23
34237;BME280;20501;45.956;13.632;2022-09-01T05:53:36;100325.19;;;19.93;68.33
34237;BME280;20501;45.956;13.632;2022-09-01T05:56:05;100335.97;;;20.01;67.96
34237;BME280;20501;45.956;13.632;2022-09-01T05:58:33;100328.38;;;20.17;67.98
34237;BME280;20501;45.956;13.632;2022-09-01T06:01:02;100329.63;;;20.01;66.09
34237;BME280;20501;45.956;13.632;2022-09-01T06:03:28;100337.91;;;20.34;64.44
34237;BME280;20501;45.956;13.632;2022-09-01T06:06:00;100338.50;;;20.56;63.48
34237;BME280;20501;45.956;13.632;2022-09-01T06:08:26;100346.13;;;20.81;67.34
34237;BME280;20501;45.956;13.632;2022-09-01T06:10:53;100352.22;;;20.63;62.57
34237;BME280;20501;45.956;13.632;2022-09-01T06:13:18;100359.41;;;20.37;62.31
34237;BME280;20501;45.956;13.632;2022-09-01T06:15:47;100346.31;;;20.19;64.84
34237;BME280;20501;45.956;13.632;2022-09-01T06:18:13;100357.94;;;20.28;62.63
34237;BME280;20501;45.956;13.632;2022-09-01T06:20:40;100349.91;;;20.20;63.40
34237;BME280;20501;45.956;13.632;2022-09-01T06:23:08;100361.31;;;20.37;63.74
34237;BME280;20501;45.956;13.632;2022-09-01T06:25:37;100358.97;;;20.14;62.60
34237;BME280;20501;45.956;13.632;2022-09-01T06:28:04;100361.69;;;20.00;63.86
34237;BME280;20501;45.956;13.632;2022-09-01T06:30:30;100360.91;;;20.33;64.01
34237;BME280;20501;45.956;13.632;2022-09-01T06:32:57;100372.31;;;20.57;63.18
34237;BME280;20501;45.956;13.632;2022-09-01T06:35:23;100386.19;;;20.42;62.49
34237;BME280;20501;45.956;13.632;2022-09-01T06:37:54;100368.06;;;20.41;63.36
34237;BME280;20501;45.956;13.632;2022-09-01T06:40:20;100382.84;;;20.60;62.18
34237;BME280;20501;45.956;13.632;2022-09-01T06:42:49;100380.09;;;20.40;61.30
34237;BME280;20501;45.956;13.632;2022-09-01T06:45:18;100378.19;;;20.40;65.94
34237;BME280;20501;45.956;13.632;2022-09-01T06:47:45;100378.41;;;20.52;62.62
34237;BME280;20501;45.956;13.632;2022-09-01T06:50:13;100380.53;;;20.50;61.60
34237;BME280;20501;45.956;13.632;2022-09-01T06:52:43;100372.94;;;20.46;61.53
34237;BME280;20501;45.956;13.632;2022-09-01T06:55:13;100359.41;;;20.57;61.57
34237;BME280;20501;45.956;13.632;2022-09-01T06:57:40;100367.88;;;20.76;60.91
34237;BME280;20501;45.956;13.632;2022-09-01T07:00:08;100373.97;;;20.71;60.30
34237;BME280;20501;45.956;13.632;2022-09-01T07:02:53;100363.84;;;20.65;60.67
34237;BME280;20501;45.956;13.632;2022-09-01T07:05:21;100371.44;;;20.70;60.37
34237;BME280;20501;45.956;13.632;2022-09-01T07:07:49;100362.56;;;20.68;60.37
34237;BME280;20501;45.956;13.632;2022-09-01T07:10:19;100359.00;;;20.54;59.96
34237;BME280;20501;45.956;13.632;2022-09-01T07:12:51;100355.63;;;20.65;60.69
34237;BME280;20501;45.956;13.632;2022-09-01T07:15:17;100350.97;;;20.99;60.52
34237;BME280;20501;45.956;13.632;2022-09-01T07:17:55;100373.56;;;20.95;58.97
34237;BME280;20501;45.956;13.632;2022-09-01T07:20:26;100373.13;;;20.84;59.99
34237;BME280;20501;45.956;13.632;2022-09-01T07:22:54;100368.28;;;20.86;63.41
34237;BME280;20501;45.956;13.632;2022-09-01T07:25:20;100375.41;;;21.14;64.64
34237;BME280;20501;45.956;13.632;2022-09-01T07:27:46;100375.44;;;20.94;60.58
34237;BME280;20501;45.956;13.632;2022-09-01T07:30:19;100378.19;;;21.01;60.84
34237;BME280;20501;45.956;13.632;2022-09-01T07:32:44;100383.66;;;21.08;59.20
34237;BME280;20501;45.956;13.632;2022-09-01T07:35:18;100374.63;;;20.80;59.09
34237;BME280;20501;45.956;13.632;2022-09-01T07:37:45;100390.47;;;20.92;58.73
34237;BME280;20501;45.956;13.632;2022-09-01T07:40:15;100389.19;;;20.87;58.73
34237;BME280;20501;45.956;13.632;2022-09-01T07:42:47;100382.53;;;21.29;61.98
34237;BME280;20501;45.956;13.632;2022-09-01T07:45:15;100385.09;;;21.30;57.13
34237;BME280;20501;45.956;13.632;2022-09-01T07:47:41;100378.72;;;21.37;57.84
34237;BME280;20501;45.956;13.632;2022-09-01T07:50:08;100388.88;;;21.36;56.72
34237;BME280;20501;45.956;13.632;2022-09-01T07:52:35;100384.75;;;21.65;56.34
34237;BME280;20501;45.956;13.632;2022-09-01T07:55:02;100388.34;;;21.73;59.13
34237;BME280;20501;45.956;13.632;2022-09-01T07:57:28;100382.22;;;21.71;59.02
34237;BME280;20501;45.956;13.632;2022-09-01T07:59:53;100380.38;;;21.44;57.01
34237;BME280;20501;45.956;13.632;2022-09-01T08:02:20;100374.88;;;21.51;56.54
34237;BME280;20501;45.956;13.632;2022-09-01T08:04:47;100373.97;;;21.71;55.92
34237;BME280;20501;45.956;13.632;2022-09-01T08:07:13;100377.41;;;21.53;56.11
34237;BME280;20501;45.956;13.632;2022-09-01T08:09:38;100384.81;;;21.52;54.60
34237;BME280;20501;45.956;13.632;2022-09-01T08:12:05;100391.03;;;21.86;54.96
34237;BME280;20501;45.956;13.632;2022-09-01T08:14:31;100389.75;;;21.89;54.87
34237;BME280;20501;45.956;13.632;2022-09-01T08:16:57;100395.16;;;21.63;55.40
34237;BME280;20501;45.956;13.632;2022-09-01T08:19:22;100401.69;;;21.69;56.67
34237;BME280;20501;45.956;13.632;2022-09-01T08:21:47;100400.28;;;21.40;56.69
34237;BME280;20501;45.956;13.632;2022-09-01T08:24:13;100403.19;;;21.52;56.94
34237;BME280;20501;45.956;13.632;2022-09-01T08:26:38;100413.53;;;21.63;55.67
34237;BME280;20501;45.956;13.632;2022-09-01T08:29:04;100412.91;;;21.54;56.45
34237;BME280;20501;45.956;13.632;2022-09-01T08:31:30;100409.69;;;21.77;54.57
34237;BME280;20501;45.956;13.632;2022-09-01T08:33:55;100407.34;;;21.74;54.10
34237;BME280;20501;45.956;13.632;2022-09-01T08:36:21;100413.66;;;21.82;55.29
34237;BME280;20501;45.956;13.632;2022-09-01T08:38:46;100417.91;;;21.84;56.79
34237;BME280;20501;45.956;13.632;2022-09-01T08:41:26;100409.19;;;21.87;54.76
34237;BME280;20501;45.956;13.632;2022-09-01T08:46:41;100413.88;;;22.19;53.07
34237;BME280;20501;45.956;13.632;2022-09-01T08:49:27;100408.47;;;22.05;55.03
34237;BME280;20501;45.956;13.632;2022-09-01T08:55:30;100405.56;;;22.32;54.95
34237;BME280;20501;45.956;13.632;2022-09-01T08:57:59;100404.50;;;22.33;54.39
34237;BME280;20501;45.956;13.632;2022-09-01T09:00:28;100404.09;;;22.30;52.92
34237;BME280;20501;45.956;13.632;2022-09-01T09:16:27;100409.38;;;22.63;55.19
34237;BME280;20501;45.956;13.632;2022-09-01T09:19:00;100395.94;;;22.73;52.36
34237;BME280;20501;45.956;13.632;2022-09-01T09:21:38;100396.19;;;22.72;51.23
34237;BME280;20501;45.956;13.632;2022-09-01T09:26:52;100419.81;;;22.80;51.11
34237;BME280;20501;45.956;13.632;2022-09-01T09:29:18;100405.88;;;22.75;51.24
34237;BME280;20501;45.956;13.632;2022-09-01T09:31:45;100407.78;;;22.74;53.38
34237;BME280;20501;45.956;13.632;2022-09-01T09:34:36;100418.91;;;22.86;53.21
34237;BME280;20501;45.956;13.632;2022-09-01T09:40:15;100418.66;;;22.69;52.82
34237;BME280;20501;45.956;13.632;2022-09-01T09:45:26;100423.75;;;22.65;50.67
34237;BME280;20501;45.956;13.632;2022-09-01T09:47:53;100430.47;;;22.69;50.95
34237;BME280;20501;45.956;13.632;2022-09-01T09:50:34;100430.16;;;22.59;50.92
34237;BME280;20501;45.956;13.632;2022-09-01T09:56:25;100420.75;;;22.41;52.86
34237;BME280;20501;45.956;13.632;2022-09-01T09:58:46;100420.09;;;22.46;52.92
34237;BME280;20501;45.956;13.632;2022-09-01T10:01:27;100419.72;;;22.68;51.46
34237;BME280;20501;45.956;13.632;2022-09-01T10:03:57;100420.34;;;22.70;50.81
34237;BME280;20501;45.956;13.632;2022-09-01T10:09:16;100433.38;;;22.81;49.65
34237;BME280;20501;45.956;13.632;2022-09-01T10:11:58;100426.13;;;22.87;49.91
34237;BME280;20501;45.956;13.632;2022-09-01T10:14:26;100429.38;;;22.77;49.71
34237;BME280;20501;45.956;13.632;2022-09-01T10:16:57;100424.44;;;22.61;50.22
34237;BME280;20501;45.956;13.632;2022-09-01T10:19:25;100427.94;;;22.42;51.16
34237;BME280;20501;45.956;13.632;2022-09-01T10:21:53;100421.38;;;22.44;49.14
34237;BME280;20501;45.956;13.632;2022-09-01T10:24:33;100415.97;;;22.23;50.98
34237;BME280;20501;45.956;13.632;2022-09-01T10:27:02;100413.56;;;22.40;48.05
34237;BME280;20501;45.956;13.632;2022-09-01T10:30:01;100425.97;;;22.50;49.45
34237;BME280;20501;45.956;13.632;2022-09-01T10:32:36;100420.44;;;22.56;49.61
34237;BME280;20501;45.956;13.632;2022-09-01T10:35:03;100418.00;;;22.41;49.86
34237;BME280;20501;45.956;13.632;2022-09-01T10:37:30;100422.13;;;22.57;50.20
34237;BME280;20501;45.956;13.632;2022-09-01T10:40:14;100427.69;;;22.76;49.80
34237;BME280;20501;45.956;13.632;2022-09-01T10:42:43;100428.00;;;22.61;50.83
34237;BME280;20501;45.956;13.632;2022-09-01T10:48:15;100427.19;;;22.61;50.24
34237;BME280;20501;45.956;13.632;2022-09-01T10:50:43;100429.88;;;22.67;52.76
34237;BME280;20501;45.956;13.632;2022-09-01T11:02:10;100425.44;;;22.34;60.98
34237;BME280;20501;45.956;13.632;2022-09-01T11:07:03;100425.25;;;22.61;49.12
34237;BME280;20501;45.956;13.632;2022-09-01T11:09:37;100420.63;;;22.62;50.75
34237;BME280;20501;45.956;13.632;2022-09-01T11:14:54;100417.44;;;22.58;48.42
34237;BME280;20501;45.956;13.632;2022-09-01T11:24:48;100418.25;;;22.65;51.08
34237;BME280;20501;45.956;13.632;2022-09-01T11:30:56;100421.00;;;22.65;48.08
34237;BME280;20501;45.956;13.632;2022-09-01T11:41:31;100419.59;;;22.56;52.38
34237;BME280;20501;45.956;13.632;2022-09-01T11:44:00;100417.44;;;22.58;49.77
34237;BME280;20501;45.956;13.632;2022-09-01T11:46:33;100423.13;;;22.63;49.74
34237;BME280;20501;45.956;13.632;2022-09-01T11:49:06;100417.56;;;22.70;48.99
34237;BME280;20501;45.956;13.632;2022-09-01T11:51:43;100413.97;;;22.69;52.11
34237;BME280;20501;45.956;13.632;2022-09-01T11:54:10;100421.16;;;22.70;46.87
34237;BME280;20501;45.956;13.632;2022-09-01T11:56:37;100425.59;;;22.71;50.37
34237;BME280;20501;45.956;13.632;2022-09-01T11:59:02;100429.72;;;23.06;44.72
34237;BME280;20501;45.956;13.632;2022-09-01T12:01:33;100429.53;;;23.08;46.61
34237;BME280;20501;45.956;13.632;2022-09-01T12:07:00;100434.31;;;23.38;46.78
34237;BME280;20501;45.956;13.632;2022-09-01T12:09:43;100435.19;;;23.13;47.87
34237;BME280;20501;45.956;13.632;2022-09-01T12:12:48;100419.63;;;23.25;45.54
34237;BME280;20501;45.956;13.632;2022-09-01T12:15:25;100422.41;;;23.18;46.83
34237;BME280;20501;45.956;13.632;2022-09-01T12:17:51;100428.66;;;23.07;44.97
34237;BME280;20501;45.956;13.632;2022-09-01T12:20:28;100420.53;;;23.19;44.99
34237;BME280;20501;45.956;13.632;2022-09-01T12:22:55;100422.94;;;23.34;46.80
34237;BME280;20501;45.956;13.632;2022-09-01T12:25:33;100419.09;;;23.35;45.24
34237;BME280;20501;45.956;13.632;2022-09-01T12:28:01;100420.25;;;23.27;45.10
34237;BME280;20501;45.956;13.632;2022-09-01T12:30:27;100426.31;;;23.11;45.54
34237;BME280;20501;45.956;13.632;2022-09-01T12:32:54;100424.34;;;23.18;45.52
34237;BME280;20501;45.956;13.632;2022-09-01T12:35:23;100420.94;;;23.41;44.73
34237;BME280;20501;45.956;13.632;2022-09-01T12:37:49;100429.00;;;23.43;47.79
34237;BME280;20501;45.956;13.632;2022-09-01T12:40:31;100429.97;;;23.30;48.27
34237;BME280;20501;45.956;13.632;2022-09-01T12:42:57;100428.69;;;23.51;45.17
34237;BME280;20501;45.956;13.632;2022-09-01T12:48:04;100428.69;;;23.51;45.01
34237;BME280;20501;45.956;13.632;2022-09-01T12:53:00;100424.22;;;23.31;44.86
34237;BME280;20501;45.956;13.632;2022-09-01T12:55:35;100410.16;;;23.40;40.26
34237;BME280;20501;45.956;13.632;2022-09-01T12:58:04;100413.91;;;23.45;41.59
34237;BME280;20501;45.956;13.632;2022-09-01T13:00:33;100407.13;;;23.60;44.04
34237;BME280;20501;45.956;13.632;2022-09-01T13:08:00;100415.16;;;23.99;40.01
34237;BME280;20501;45.956;13.632;2022-09-01T13:10:31;100412.63;;;23.97;39.77
34237;BME280;20501;45.956;13.632;2022-09-01T13:12:58;100416.38;;;24.03;39.89
34237;BME280;20501;45.956;13.632;2022-09-01T13:15:24;100414.34;;;24.10;41.63
34237;BME280;20501;45.956;13.632;2022-09-01T13:17:51;100404.34;;;23.97;41.93
34237;BME280;20501;45.956;13.632;2022-09-01T13:20:17;100418.22;;;23.90;41.27
34237;BME280;20501;45.956;13.632;2022-09-01T13:22:43;100412.22;;;23.93;40.87
34237;BME280;20501;45.956;13.632;2022-09-01T13:25:14;100409.34;;;24.07;42.05
34237;BME280;20501;45.956;13.632;2022-09-01T13:27:43;100407.75;;;24.11;40.45
34237;BME280;20501;45.956;13.632;2022-09-01T13:30:15;100408.38;;;24.13;41.78
34237;BME280;20501;45.956;13.632;2022-09-01T13:32:42;100413.28;;;24.11;39.92
34237;BME280;20501;45.956;13.632;2022-09-01T13:35:09;100398.59;;;23.99;41.32
34237;BME280;20501;45.956;13.632;2022-09-01T13:37:35;100392.63;;;24.02;40.19
34237;BME280;20501;45.956;13.632;2022-09-01T13:40:02;100390.94;;;24.01;39.57
34237;BME280;20501;45.956;13.632;2022-09-01T13:42:28;100397.69;;;24.05;40.09
34237;BME280;20501;45.956;13.632;2022-09-01T13:44:53;100392.16;;;24.05;39.34
34237;BME280;20501;45.956;13.632;2022-09-01T13:47:19;100384.25;;;24.08;38.60
34237;BME280;20501;45.956;13.632;2022-09-01T13:49:44;100387.75;;;24.16;38.16
34237;BME280;20501;45.956;13.632;2022-09-01T13:52:10;100383.88;;;24.05;38.59
34237;BME280;20501;45.956;13.632;2022-09-01T13:54:36;100377.78;;;24.15;38.89
34237;BME280;20501;45.956;13.632;2022-09-01T13:57:02;100382.22;;;24.16;39.17
34237;BME280;20501;45.956;13.632;2022-09-01T13:59:27;100381.22;;;23.98;39.97
34237;BME280;20501;45.956;13.632;2022-09-01T14:01:54;100384.34;;;24.02;40.71
34237;BME280;20501;45.956;13.632;2022-09-01T14:04:20;100391.47;;;24.21;40.28
34237;BME280;20501;45.956;13.632;2022-09-01T14:06:46;100383.78;;;24.11;40.10
34237;BME280;20501;45.956;13.632;2022-09-01T14:09:14;100381.13;;;24.05;40.63
34237;BME280;20501;45.956;13.632;2022-09-01T14:11:39;100379.47;;;24.16;39.40
34237;BME280;20501;45.956;13.632;2022-09-01T14:14:05;100385.28;;;23.95;43.58